createdAt,value
2023-04-22T00:01:18.178Z,100361.84
2023-04-22T00:03:47.887Z,100359.13
2023-04-22T00:06:15.803Z,100357.25
2023-04-22T00:08:43.746Z,100351.81
2023-04-22T00:11:11.945Z,100350.97
2023-04-22T00:13:40.109Z,100349.31
2023-04-22T00:16:08.302Z,100349.31
2023-04-22T00:18:36.435Z,100350.97
2023-04-22T00:21:06.168Z,100316.97
2023-04-22T00:23:34.385Z,100348.50
2023-04-22T00:26:02.287Z,100354.75
2023-04-22T00:28:30.303Z,100349.31
2023-04-22T00:30:58.969Z,100344.13
2023-04-22T00:33:27.261Z,100335.38
2023-04-22T00:35:55.282Z,100344.13
2023-04-22T00:38:24.842Z,100336.41
2023-04-22T00:40:52.704Z,100333.94
2023-04-22T00:43:20.895Z,100341.41
2023-04-22T00:45:48.995Z,100329.78
2023-04-22T00:48:16.852Z,100349.56
2023-04-22T00:50:44.707Z,100335.84
2023-04-22T00:53:12.842Z,100339.75
2023-04-22T00:55:42.132Z,100343.31
2023-04-22T00:58:10.087Z,100340.59
2023-04-22T01:00:38.165Z,100345.19
2023-04-22T01:03:06.773Z,100335.38
2023-04-22T01:05:34.849Z,100340.59
2023-04-22T01:08:02.783Z,100330.78
2023-04-22T01:10:30.782Z,100340.81
2023-04-22T01:13:00.143Z,100343.50
2023-04-22T01:15:28.838Z,100341.63
2023-04-22T01:17:56.885Z,100237.91
2023-04-22T01:20:25.076Z,100336.19
2023-04-22T01:22:52.969Z,100338.09
2023-04-22T01:25:22.692Z,100340.81
2023-04-22T01:27:50.694Z,100324.44
2023-04-22T01:30:18.789Z,100231.28
2023-04-22T01:32:46.780Z,100350.84
2023-04-22T01:35:14.957Z,100297.47
2023-04-22T01:37:42.920Z,100304.56
2023-04-22T01:40:11.624Z,100345.41
2023-04-22T01:42:40.961Z,100350.84
2023-04-22T01:45:13.203Z,100347.28
2023-04-22T01:47:41.121Z,100346.44
2023-04-22T01:50:10.241Z,100352.97
2023-04-22T01:52:38.262Z,100345.63
2023-04-22T01:55:07.511Z,100346.69
2023-04-22T01:57:35.424Z,100348.34
2023-04-22T02:00:06.016Z,100343.97
2023-04-22T02:02:34.118Z,100335.84
2023-04-22T02:05:02.439Z,100337.72
2023-04-22T02:07:30.423Z,100314.44
2023-04-22T02:09:58.341Z,100345.63
2023-04-22T02:12:26.237Z,100333.94
2023-04-22T02:14:54.171Z,100334.75
2023-04-22T02:17:23.435Z,100333.94
2023-04-22T02:19:51.371Z,100328.53
2023-04-22T02:22:19.299Z,100315.69
2023-04-22T02:24:47.668Z,100326.84
2023-04-22T02:27:15.636Z,100291.31
2023-04-22T02:29:43.588Z,100318.72
2023-04-22T02:32:11.506Z,100319.53
2023-04-22T02:34:41.372Z,100314.31
2023-04-22T02:37:09.261Z,100313.28
2023-04-22T02:39:37.402Z,100317.03
2023-04-22T02:42:05.524Z,100316.22
2023-04-22T02:44:33.785Z,100309.22
2023-04-22T02:47:01.865Z,100317.03
2023-04-22T02:49:29.768Z,100309.72
2023-04-22T02:52:00.007Z,100317.88
2023-04-22T02:54:28.264Z,100252.25
2023-04-22T02:56:56.160Z,100298.03
2023-04-22T02:59:24.026Z,100305.13
2023-04-22T03:01:51.988Z,100302.41
2023-04-22T03:04:22.075Z,100305.13
2023-04-22T03:06:50.143Z,100298.88
2023-04-22T03:09:19.476Z,100295.31
2023-04-22T03:11:47.348Z,100295.31
2023-04-22T03:14:15.534Z,100288.00
2023-04-22T03:16:43.473Z,100281.59
2023-04-22T03:19:11.405Z,100288.00
2023-04-22T03:21:39.292Z,100286.13
2023-04-22T03:24:07.744Z,100285.28
2023-04-22T03:26:37.067Z,100281.75
2023-04-22T03:29:05.095Z,100284.94
2023-04-22T03:31:33.026Z,100262.06
2023-04-22T03:34:01.279Z,100275.50
2023-04-22T03:36:29.236Z,100274.44
2023-04-22T03:38:57.128Z,100274.66
2023-04-22T03:41:26.472Z,100279.03
2023-04-22T03:43:56.073Z,100246.19
2023-04-22T03:46:24.136Z,100280.69
2023-04-22T03:48:52.203Z,100269.00
2023-04-22T03:51:20.164Z,100266.28
2023-04-22T03:53:48.337Z,100277.16
2023-04-22T03:56:16.235Z,100269.22
2023-04-22T03:58:44.920Z,100270.66
2023-04-22T04:01:14.181Z,100267.94
2023-04-22T04:03:42.538Z,100245.00
2023-04-22T04:06:10.579Z,100250.84
2023-04-22T04:08:38.569Z,100222.81
2023-04-22T04:11:06.584Z,100252.50
2023-04-22T04:13:34.794Z,100254.38
2023-04-22T04:16:04.247Z,100245.25
2023-04-22T04:18:33.630Z,100241.63
2023-04-22T04:21:01.578Z,100239.72
2023-04-22T04:23:30.129Z,100247.06
2023-04-22T04:25:58.025Z,100226.84
2023-04-22T04:28:27.112Z,100188.00
2023-04-22T04:30:55.718Z,100230.53
2023-04-22T04:33:24.915Z,100197.13
2023-04-22T04:35:54.225Z,100228.63
2023-04-22T04:38:22.106Z,100229.47
2023-04-22T04:40:50.048Z,100230.28
2023-04-22T04:43:18.670Z,100225.09
2023-04-22T04:45:48.766Z,100234.69
2023-04-22T04:48:16.947Z,100230.28
2023-04-22T04:50:45.095Z,100227.59
2023-04-22T04:53:15.699Z,100229.25
2023-04-22T04:55:43.574Z,100231.97
2023-04-22T04:58:11.648Z,100219.22
2023-04-22T05:00:39.540Z,100211.91
2023-04-22T05:03:07.904Z,100213.19
2023-04-22T05:05:36.460Z,100208.78
2023-04-22T05:08:04.904Z,100209.03
2023-04-22T05:10:34.180Z,100217.19
2023-04-22T05:13:04.382Z,100222.63
2023-04-22T05:15:32.499Z,100215.53
2023-04-22T05:18:00.448Z,100212.19
2023-04-22T05:20:28.392Z,100222.00
2023-04-22T05:22:56.280Z,100227.44
2023-04-22T05:25:24.164Z,100229.31
2023-04-22T05:27:53.565Z,100227.44
2023-04-22T05:30:21.535Z,100235.59
2023-04-22T05:32:49.535Z,100211.69
2023-04-22T05:35:17.845Z,100227.22
2023-04-22T05:37:45.784Z,100231.56
2023-04-22T05:40:13.862Z,100233.50
2023-04-22T05:42:41.774Z,100228.84
2023-04-22T05:45:15.687Z,100221.53
2023-04-22T05:47:43.616Z,100207.16
2023-04-22T05:50:12.070Z,100234.28
2023-04-22T05:52:39.940Z,100231.34
2023-04-22T05:55:09.240Z,100230.53
2023-04-22T05:57:37.330Z,100225.09
2023-04-22T06:00:06.031Z,100193.78
2023-04-22T06:02:35.707Z,100212.28
2023-04-22T06:05:04.933Z,100230.53
2023-04-22T06:07:33.235Z,100231.34
2023-04-22T06:10:05.032Z,100218.69
2023-04-22T06:12:34.240Z,100227.59
2023-04-22T06:15:02.730Z,100218.25
2023-04-22T06:17:30.888Z,100211.63
2023-04-22T06:20:00.424Z,100199.63
2023-04-22T06:22:28.516Z,100222.16
2023-04-22T06:24:56.901Z,100215.75
2023-04-22T06:27:25.093Z,100221.31
2023-04-22T06:29:53.240Z,100216.81
2023-04-22T06:32:21.324Z,100189.56
2023-04-22T06:34:50.167Z,100202.25
2023-04-22T06:37:19.776Z,100216.72
2023-04-22T06:39:47.949Z,100223.81
2023-04-22T06:42:16.052Z,100215.66
2023-04-22T06:44:44.538Z,100198.84
2023-04-22T06:47:12.426Z,100215.88
2023-04-22T06:49:40.799Z,100200.44
2023-04-22T06:52:09.322Z,100212.13
2023-04-22T06:54:39.640Z,100202.09
2023-04-22T06:57:08.140Z,100181.75
2023-04-22T06:59:36.789Z,100168.78
2023-04-22T07:02:05.807Z,100209.41
2023-04-22T07:04:34.446Z,100202.53
2023-04-22T07:07:02.555Z,100208.56
2023-04-22T07:09:30.526Z,100195.81
2023-04-22T07:11:59.781Z,100205.84
2023-04-22T07:14:28.023Z,100105.81
2023-04-22T07:16:55.938Z,100213.19
2023-04-22T07:19:23.877Z,100213.19
2023-04-22T07:21:51.820Z,100196.13
2023-04-22T07:24:20.065Z,100202.31
2023-04-22T07:26:48.096Z,100205.84
2023-04-22T07:29:17.474Z,100197.72
2023-04-22T07:31:45.494Z,100201.25
2023-04-22T07:34:14.249Z,100202.31
2023-04-22T07:36:42.159Z,100198.53
2023-04-22T07:39:10.708Z,100200.44
2023-04-22T07:41:38.608Z,100191.22
2023-04-22T07:44:06.808Z,100191.00
2023-04-22T07:46:36.142Z,100166.97
2023-04-22T07:49:04.055Z,100192.91
2023-04-22T07:51:32.362Z,100190.19
2023-04-22T07:54:00.587Z,100189.34
2023-04-22T07:56:28.450Z,100184.13
2023-04-22T07:58:56.388Z,100169.50
2023-04-22T08:01:24.308Z,100167.00
2023-04-22T08:03:54.189Z,100164.38
2023-04-22T08:06:22.174Z,100172.44
2023-04-22T08:08:50.082Z,100172.44
2023-04-22T08:11:18.061Z,100177.03
2023-04-22T08:13:46.278Z,100170.78
2023-04-22T08:16:14.203Z,100170.78
2023-04-22T08:18:42.345Z,100160.75
2023-04-22T08:21:12.450Z,100106.75
2023-04-22T08:23:40.681Z,100155.19
2023-04-22T08:26:10.138Z,100156.63
2023-04-22T08:28:38.125Z,100142.66
2023-04-22T08:31:06.650Z,100147.19
2023-04-22T08:33:34.829Z,100133.59
2023-04-22T08:36:03.692Z,100145.28
2023-04-22T08:38:32.980Z,100144.69
2023-04-22T08:41:00.852Z,100139.50
2023-04-22T08:43:29.247Z,100130.31
2023-04-22T08:45:57.143Z,100135.25
2023-04-22T08:48:25.043Z,100125.53
2023-04-22T08:50:52.916Z,100139.63
2023-04-22T08:53:23.780Z,100095.50
2023-04-22T08:55:53.905Z,100127.94
2023-04-22T08:58:21.793Z,100118.97
2023-04-22T09:00:49.778Z,100120.63
2023-04-22T09:03:18.181Z,100133.16
2023-04-22T09:05:46.133Z,100113.75
2023-04-22T09:08:14.103Z,100117.09
2023-04-22T09:10:42.078Z,100116.59
2023-04-22T09:13:13.158Z,100116.59
2023-04-22T09:15:42.709Z,100108.47
2023-04-22T09:18:10.956Z,100112.00
2023-04-22T09:20:38.842Z,100104.69
2023-04-22T09:23:07.042Z,100103.28
2023-04-22T09:25:35.309Z,100112.00
2023-04-22T09:28:03.343Z,100109.28
2023-04-22T09:30:33.419Z,100102.81
2023-04-22T09:33:02.777Z,100096.63
2023-04-22T09:35:31.674Z,100108.25
2023-04-22T09:38:00.048Z,100106.34
2023-04-22T09:40:28.328Z,100106.34
2023-04-22T09:42:57.011Z,100090.97
2023-04-22T09:45:29.032Z,100101.75
2023-04-22T09:47:59.178Z,100070.31
2023-04-22T09:50:27.912Z,100114.84
2023-04-22T09:52:56.968Z,100106.72
2023-04-22T09:55:25.868Z,100103.16
2023-04-22T09:57:54.666Z,100093.38
2023-04-22T10:00:22.904Z,100091.72
2023-04-22T10:02:50.876Z,100097.72
2023-04-22T10:05:20.797Z,100086.63
2023-04-22T10:07:48.784Z,100082.53
2023-04-22T10:10:16.692Z,100088.31
2023-04-22T10:12:44.588Z,100074.47
2023-04-22T10:15:12.964Z,100092.91
2023-04-22T10:17:41.052Z,100015.44
2023-04-22T10:20:13.795Z,100105.44
2023-04-22T10:22:43.729Z,100109.53
2023-04-22T10:25:15.491Z,100111.22
2023-04-22T10:27:43.369Z,100108.50
2023-04-22T10:30:12.783Z,100095.84
2023-04-22T10:32:40.784Z,100104.94
2023-04-22T10:35:11.789Z,100088.41
2023-04-22T10:37:44.615Z,100100.56
2023-04-22T10:40:15.885Z,100087.94
2023-04-22T10:42:47.473Z,100112.25
2023-04-22T10:45:15.786Z,100006.81
2023-04-22T10:47:43.712Z,100048.06
2023-04-22T10:50:17.523Z,100107.44
2023-04-22T10:52:48.702Z,100096.66
2023-04-22T10:55:16.915Z,100103.66
2023-04-22T10:57:45.374Z,100107.22
2023-04-22T11:00:41.847Z,100115.38
2023-04-22T11:03:18.227Z,100115.38
2023-04-22T11:05:46.884Z,100111.81
2023-04-22T11:08:20.581Z,100106.38
2023-04-22T11:10:51.799Z,100094.06
2023-04-22T11:13:23.592Z,100109.94
2023-04-22T11:15:54.120Z,100098.34
2023-04-22T11:18:23.317Z,100106.47
2023-04-22T11:20:51.726Z,100115.59
2023-04-22T11:23:24.212Z,100110.25
2023-04-22T11:25:58.657Z,100126.22
2023-04-22T11:28:26.938Z,100115.25
2023-04-22T11:30:54.926Z,100120.19
2023-04-22T11:33:23.102Z,100114.53
2023-04-22T11:35:51.692Z,100019.56
2023-04-22T11:38:21.001Z,100108.16
2023-04-22T11:40:49.275Z,100116.66
2023-04-22T11:43:18.744Z,100106.59
2023-04-22T11:45:46.956Z,100110.16
2023-04-22T11:48:15.738Z,100103.06
2023-04-22T11:50:44.716Z,100106.38
2023-04-22T11:53:16.597Z,100095.13
2023-04-22T11:55:46.515Z,100103.88
2023-04-22T11:58:15.702Z,100104.50
2023-04-22T12:00:44.806Z,100119.72
2023-04-22T12:03:15.964Z,100116.19
2023-04-22T12:05:44.570Z,100106.25
2023-04-22T12:08:13.394Z,100110.38
2023-04-22T12:10:47.387Z,100102.22
2023-04-22T12:13:21.880Z,100114.28
2023-04-22T12:15:50.003Z,100113.56
2023-04-22T12:18:17.869Z,100120.53
2023-04-22T12:20:45.803Z,100111.56
2023-04-22T12:23:15.621Z,100110.50
2023-04-22T12:25:43.652Z,100122.19
2023-04-22T12:28:14.257Z,100110.50
2023-04-22T12:30:42.668Z,100114.06
2023-04-22T12:33:10.934Z,99965.44
2023-04-22T12:35:38.827Z,100102.59
2023-04-22T12:38:06.752Z,100122.19
2023-04-22T12:40:34.660Z,100113.22
2023-04-22T12:43:05.924Z,100121.38
2023-04-22T12:45:35.476Z,100115.94
2023-04-22T12:48:03.383Z,100097.97
2023-04-22T12:50:31.292Z,100012.25
2023-04-22T12:52:59.486Z,100075.75
2023-04-22T12:55:27.418Z,100118.66
2023-04-22T12:57:55.374Z,100120.53
2023-04-22T13:00:23.325Z,100115.09
2023-04-22T13:02:52.684Z,100115.09
2023-04-22T13:05:20.982Z,100116.78
2023-04-22T13:07:59.562Z,100118.66
2023-04-22T13:10:31.842Z,100122.19
2023-04-22T13:13:13.606Z,100132.25
2023-04-22T13:15:45.287Z,100129.53
2023-04-22T13:18:14.876Z,100128.13
2023-04-22T13:20:42.800Z,100136.84
2023-04-22T13:23:11.352Z,100139.56
2023-04-22T13:25:39.253Z,100136.84
2023-04-22T13:28:07.164Z,100066.00
2023-04-22T13:30:35.043Z,100128.69
2023-04-22T13:33:03.465Z,100095.81
2023-04-22T13:35:33.295Z,100053.00
2023-04-22T13:38:01.383Z,100140.38
2023-04-22T13:40:29.347Z,100136.72
2023-04-22T13:42:57.217Z,100142.28
2023-04-22T13:45:25.662Z,100123.38
2023-04-22T13:47:54.541Z,100134.13
2023-04-22T13:50:22.765Z,100142.53
2023-04-22T13:52:52.069Z,100143.09
2023-04-22T13:55:20.511Z,100143.09
2023-04-22T13:57:48.425Z,100124.44
2023-04-22T14:00:16.697Z,100131.66
2023-04-22T14:02:45.373Z,100137.66
2023-04-22T14:05:13.426Z,100130.00
2023-04-22T14:07:41.385Z,100125.97
2023-04-22T14:10:12.206Z,100129.38
2023-04-22T14:12:40.217Z,100129.78
2023-04-22T14:15:11.562Z,100103.16
2023-04-22T14:17:39.604Z,100135.22
2023-04-22T14:20:08.845Z,100130.84
2023-04-22T14:22:36.776Z,100131.66
2023-04-22T14:25:05.272Z,100126.22
2023-04-22T14:27:34.563Z,100075.56
2023-04-22T14:30:04.347Z,100117.00
2023-04-22T14:32:32.421Z,100121.03
2023-04-22T14:35:00.635Z,100129.16
2023-04-22T14:37:28.603Z,100135.44
2023-04-22T14:39:57.493Z,100120.28
2023-04-22T14:42:25.618Z,100136.50
2023-04-22T14:44:55.163Z,100137.31
2023-04-22T14:47:23.156Z,100131.97
2023-04-22T14:49:51.170Z,100121.81
2023-04-22T14:52:19.079Z,100144.63
2023-04-22T14:54:50.078Z,100141.09
2023-04-22T14:57:19.647Z,100103.59
2023-04-22T14:59:47.533Z,100138.38
2023-04-22T15:02:16.949Z,100144.63
2023-04-22T15:04:45.279Z,100147.56
2023-04-22T15:07:13.180Z,100132.59
2023-04-22T15:09:41.468Z,100146.53
2023-04-22T15:12:16.375Z,100146.53
2023-04-22T15:14:44.238Z,100141.31
2023-04-22T15:17:12.795Z,100149.59
2023-04-22T15:19:41.162Z,100155.63
2023-04-22T15:22:09.364Z,100150.41
2023-04-22T15:24:37.238Z,100152.09
2023-04-22T15:27:05.366Z,100155.63
2023-04-22T15:29:34.984Z,100156.69
2023-04-22T15:32:03.632Z,100156.69
2023-04-22T15:34:31.660Z,100150.41
2023-04-22T15:36:59.608Z,100144.97
2023-04-22T15:39:27.545Z,100146.88
2023-04-22T15:41:55.464Z,100143.34
2023-04-22T15:44:23.638Z,100143.34
2023-04-22T15:46:53.461Z,100142.53
2023-04-22T15:49:21.690Z,100137.09
2023-04-22T15:51:49.647Z,100138.97
2023-04-22T15:54:17.554Z,100141.69
2023-04-22T15:56:45.430Z,100146.06
2023-04-22T15:59:13.340Z,100141.91
2023-04-22T16:01:42.250Z,100137.31
2023-04-22T16:04:12.708Z,100143.81
2023-04-22T16:06:41.101Z,100146.28
2023-04-22T16:09:09.257Z,100136.50
2023-04-22T16:11:37.277Z,100147.13
2023-04-22T16:14:05.212Z,100156.09
2023-04-22T16:16:33.642Z,100144.63
2023-04-22T16:19:01.808Z,100155.50
2023-04-22T16:21:32.171Z,100150.91
2023-04-22T16:24:00.875Z,100147.56
2023-04-22T16:26:28.808Z,100151.72
2023-04-22T16:28:56.983Z,100150.91
2023-04-22T16:31:25.179Z,100156.09
2023-04-22T16:33:53.168Z,100146.28
2023-04-22T16:36:21.623Z,100160.72
2023-04-22T16:38:51.470Z,100164.25
2023-04-22T16:41:19.371Z,100152.78
2023-04-22T16:43:47.298Z,100153.38
2023-04-22T16:46:15.352Z,100152.56
2023-04-22T16:48:43.566Z,100149.00
2023-04-22T16:51:11.541Z,100150.06
2023-04-22T16:53:39.448Z,100149.84
2023-04-22T16:56:08.799Z,100149.84
2023-04-22T16:58:36.714Z,100151.72
2023-04-22T17:01:04.642Z,100158.00
2023-04-22T17:03:32.750Z,100158.81
2023-04-22T17:06:00.750Z,100158.81
2023-04-22T17:08:28.971Z,100164.00
2023-04-22T17:10:56.855Z,100173.22
2023-04-22T17:13:26.201Z,100175.13
2023-04-22T17:15:54.148Z,100184.09
2023-04-22T17:18:22.377Z,100180.28
2023-04-22T17:20:50.355Z,100184.91
2023-04-22T17:23:18.374Z,100184.91
2023-04-22T17:25:47.003Z,100183.84
2023-04-22T17:28:15.183Z,100183.25
2023-04-22T17:30:44.448Z,100184.09
2023-04-22T17:33:12.310Z,100182.19
2023-04-22T17:35:40.349Z,100185.97
2023-04-22T17:38:08.538Z,100182.19
2023-04-22T17:40:36.448Z,100183.25
2023-04-22T17:43:04.384Z,100185.97
2023-04-22T17:45:32.305Z,100177.84
2023-04-22T17:48:01.720Z,100185.97
2023-04-22T17:50:29.760Z,100189.53
2023-04-22T17:52:58.019Z,100183.50
2023-04-22T17:55:26.041Z,100196.59
2023-04-22T17:57:54.287Z,100193.88
2023-04-22T18:00:22.208Z,100194.72
2023-04-22T18:02:50.271Z,100201.19
2023-04-22T18:05:19.761Z,100200.16
2023-04-22T18:07:47.764Z,100191.16
2023-04-22T18:10:15.721Z,100195.75
2023-04-22T18:12:43.752Z,100192.25
2023-04-22T18:15:11.972Z,100185.16
2023-04-22T18:17:40.257Z,100193.88
2023-04-22T18:20:17.312Z,100193.66
2023-04-22T18:22:48.008Z,100197.19
2023-04-22T18:25:16.005Z,100196.38
2023-04-22T18:27:44.225Z,100191.41
2023-04-22T18:30:12.411Z,100193.03
2023-04-22T18:32:40.516Z,100196.16
2023-04-22T18:35:09.514Z,100194.50
2023-04-22T18:37:37.715Z,100190.72
2023-04-22T18:40:08.784Z,100200.75
2023-04-22T18:42:36.863Z,100203.47
2023-04-22T18:45:05.510Z,100200.75
2023-04-22T18:47:35.676Z,100198.03
2023-04-22T18:50:03.613Z,100208.91
2023-04-22T18:52:31.548Z,100215.16
2023-04-22T18:54:59.584Z,100209.72
2023-04-22T18:57:29.250Z,100220.34
2023-04-22T18:59:57.642Z,100212.81
2023-04-22T19:02:25.901Z,100220.13
2023-04-22T19:04:54.692Z,100218.00
2023-04-22T19:07:22.601Z,100221.78
2023-04-22T19:09:50.559Z,100224.50
2023-04-22T19:12:19.547Z,100220.13
2023-04-22T19:14:48.986Z,100222.84
2023-04-22T19:17:16.933Z,100224.50
2023-04-22T19:19:45.452Z,100228.28
2023-04-22T19:22:13.640Z,100226.59
2023-04-22T19:24:41.628Z,100259.81
2023-04-22T19:27:12.412Z,100258.16
2023-04-22T19:29:41.725Z,100269.03
2023-04-22T19:32:11.565Z,100268.66
2023-04-22T19:34:39.528Z,100273.41
2023-04-22T19:37:08.289Z,100281.31
2023-04-22T19:39:36.687Z,100275.06
2023-04-22T19:42:04.747Z,100276.13
2023-04-22T19:44:32.703Z,100278.84
2023-04-22T19:47:00.830Z,100288.66
2023-04-22T19:49:32.736Z,100282.38
2023-04-22T19:52:02.351Z,100289.69
2023-04-22T19:54:32.008Z,100285.94
2023-04-22T19:57:02.070Z,100286.97
2023-04-22T19:59:31.648Z,100287.81
2023-04-22T20:02:00.245Z,100293.25
2023-04-22T20:04:30.537Z,100287.81
2023-04-22T20:07:01.439Z,100287.19
2023-04-22T20:09:31.477Z,100290.53
2023-04-22T20:11:59.538Z,100292.41
2023-04-22T20:14:27.574Z,100296.78
2023-04-22T20:16:56.635Z,100301.41
2023-04-22T20:19:25.595Z,100298.69
2023-04-22T20:21:56.722Z,100311.22
2023-04-22T20:24:24.638Z,100304.94
2023-04-22T20:26:52.519Z,100311.44
2023-04-22T20:29:20.997Z,100294.16
2023-04-22T20:31:49.159Z,100309.53
2023-04-22T20:34:17.299Z,100309.53
2023-04-22T20:36:45.364Z,100306.84
2023-04-22T20:39:15.122Z,100305.78
2023-04-22T20:41:43.508Z,100309.53
2023-04-22T20:44:11.497Z,100308.72
2023-04-22T20:46:39.415Z,100315.81
2023-04-22T20:49:08.125Z,100316.88
2023-04-22T20:51:36.097Z,100311.91
2023-04-22T20:54:06.213Z,100320.41
2023-04-22T20:56:39.209Z,100314.16
2023-04-22T20:59:07.445Z,100325.00
2023-04-22T21:01:35.835Z,100322.31
2023-04-22T21:04:04.095Z,100319.81
2023-04-22T21:06:34.019Z,100334.22
2023-04-22T21:09:02.796Z,100331.50
2023-04-22T21:11:31.389Z,100338.81
2023-04-22T21:14:01.159Z,100334.44
2023-04-22T21:16:29.789Z,100338.81
2023-04-22T21:18:59.875Z,100337.16
2023-04-22T21:21:29.973Z,100337.97
2023-04-22T21:23:58.539Z,100337.97
2023-04-22T21:26:26.478Z,100345.31
2023-04-22T21:28:55.145Z,100342.59
2023-04-22T21:31:24.817Z,100345.56
2023-04-22T21:33:52.800Z,100338.22
2023-04-22T21:36:22.447Z,100345.56
2023-04-22T21:38:50.809Z,100349.94
2023-04-22T21:41:18.727Z,100349.09
2023-04-22T21:43:46.610Z,100363.50
2023-04-22T21:46:14.500Z,100355.38
2023-04-22T21:48:44.161Z,100355.13
2023-04-22T21:51:12.089Z,100356.16
2023-04-22T21:53:40.043Z,100360.81
2023-04-22T21:56:08.001Z,100356.16
2023-04-22T21:58:35.916Z,100355.38
2023-04-22T22:01:03.800Z,100359.97
2023-04-22T22:03:32.208Z,100359.13
2023-04-22T22:06:01.679Z,100350.59
2023-04-22T22:08:30.663Z,100353.91
2023-04-22T22:10:59.580Z,100362.91
2023-04-22T22:13:27.513Z,100359.34
2023-04-22T22:15:57.367Z,100361.22
2023-04-22T22:18:25.995Z,100363.94
2023-04-22T22:20:53.940Z,100362.28
2023-04-22T22:23:23.204Z,100361.91
2023-04-22T22:25:51.236Z,100373.16
2023-04-22T22:28:19.368Z,100375.03
2023-04-22T22:30:47.234Z,100371.53
2023-04-22T22:33:15.209Z,100374.25
2023-04-22T22:35:43.138Z,100370.69
2023-04-22T22:38:11.791Z,100377.75
2023-04-22T22:40:41.115Z,100384.25
2023-04-22T22:43:08.967Z,100378.00
2023-04-22T22:45:36.948Z,100381.75
2023-04-22T22:48:05.608Z,100382.59
2023-04-22T22:50:33.686Z,100378.00
2023-04-22T22:53:01.609Z,100384.47
2023-04-22T22:55:29.523Z,100380.09
2023-04-22T22:57:59.172Z,100389.09
2023-04-22T23:00:27.144Z,100386.38
2023-04-22T23:02:55.658Z,100385.75
2023-04-22T23:05:23.704Z,100393.69
2023-04-22T23:07:51.914Z,100385.75
2023-04-22T23:10:19.844Z,100383.88
2023-04-22T23:12:47.718Z,100390.97
2023-04-22T23:15:17.035Z,100387.41
2023-04-22T23:17:45.851Z,100384.13
2023-04-22T23:20:14.601Z,100389.09
2023-04-22T23:22:42.504Z,100390.97
2023-04-22T23:25:11.979Z,100382.81
2023-04-22T23:27:40.604Z,100376.56
2023-04-22T23:30:10.861Z,100374.88
2023-04-22T23:32:41.234Z,100370.28
2023-04-22T23:35:10.446Z,100365.91
2023-04-22T23:37:38.866Z,100364.28
2023-04-22T23:40:08.203Z,100367.81
2023-04-22T23:42:36.159Z,100361.56
2023-04-22T23:45:04.133Z,100354.47
2023-04-22T23:47:32.382Z,100358.84
2023-04-22T23:50:01.722Z,100354.47
2023-04-22T23:52:29.594Z,100351.75
2023-04-22T23:54:57.531Z,100345.69
2023-04-22T23:57:26.332Z,100350.06
2023-04-22T23:59:54.782Z,100351.75
